Time;durP1;ratioP1;P1;durP2;ratioP2;P2;SDS_P1;SDS_P2;PMS_P1;PMS_P2;Temp;Humidity;BMP_temperature;BMP_pressure;BME280_temperature;BME280_humidity;BME280_pressure;Samples;Min_cycle;Max_cycle;Signal;HPM_P1;HPM_P2
2021/05/27 00:02:06;;;;;;;;;2.00;2.00;;;;;21.06;35.48;99378.28;4992834;28;8790;-50
2021/05/27 00:04:32;;;;;;;;;2.00;2.00;;;;;20.77;36.20;99384.78;4998406;28;8800;-50
2021/05/27 00:06:57;;;;;;;;;2.00;2.00;;;;;21.04;34.58;99382.50;5002350;28;8870;-49
2021/05/27 00:09:23;;;;;;;;;1.50;1.50;;;;;21.16;33.97;99390.72;4993927;28;8798;-50
2021/05/27 00:11:48;;;;;;;;;1.00;1.00;;;;;21.27;33.75;99382.81;4997969;28;8793;-49
2021/05/27 00:14:13;;;;;;;;;2.25;2.25;;;;;21.26;34.59;99382.00;4992886;28;8799;-50
2021/05/27 00:16:39;;;;;;;;;3.00;3.00;;;;;21.22;35.36;99391.28;4996641;28;8812;-50
2021/05/27 00:19:04;;;;;;;;;2.00;2.00;;;;;21.12;35.48;99398.81;5005168;28;8816;-50
2021/05/27 00:21:29;;;;;;;;;2.25;2.25;;;;;20.85;35.50;99394.06;4991127;28;8803;-50
2021/05/27 00:23:55;;;;;;;;;2.00;2.00;;;;;20.91;35.57;99392.66;5004794;28;8827;-49
2021/05/27 00:26:20;;;;;;;;;1.50;1.50;;;;;21.14;34.23;99402.03;4999003;28;8823;-49
2021/05/27 00:28:45;;;;;;;;;1.00;1.00;;;;;21.17;33.77;99401.31;4993267;28;8791;-50
2021/05/27 00:31:12;;;;;;;;;1.75;1.75;;;;;21.27;34.58;99402.81;4993266;28;8808;-50
2021/05/27 00:33:37;;;;;;;;;2.60;2.60;;;;;21.25;35.12;99402.38;5002684;28;8823;-50
2021/05/27 00:36:02;;;;;;;;;2.50;2.50;;;;;21.18;35.49;99405.69;4997237;28;8803;-50
2021/05/27 00:38:28;;;;;;;;;2.00;2.00;;;;;20.98;35.37;99406.59;5004252;28;8772;-50
2021/05/27 00:40:53;;;;;;;;;2.00;2.00;;;;;20.76;35.64;99414.16;4992339;28;8946;-49
2021/05/27 00:43:19;;;;;;;;;2.00;2.00;;;;;21.02;34.88;99412.19;4988591;28;9575;-50
2021/05/27 00:45:44;;;;;;;;;2.25;2.25;;;;;21.16;34.04;99413.47;4978592;28;8875;-50
2021/05/27 00:48:56;;;;;;;;;3.00;3.00;;;;;21.22;33.81;99408.53;4996759;28;9126;-50
2021/05/27 00:50:55;;;;;;;;;2.00;2.00;;;;;21.28;34.72;99412.66;4990395;28;8889;-49
2021/05/27 00:53:21;;;;;;;;;2.00;2.00;;;;;21.20;35.28;99410.81;4986531;28;8961;-50
2021/05/27 00:55:47;;;;;;;;;2.00;2.00;;;;;21.11;35.50;99413.69;5001141;28;8767;-50
2021/05/27 00:58:13;;;;;;;;;1.75;1.75;;;;;20.83;35.53;99421.03;5008931;28;8816;-50
2021/05/27 01:00:39;;;;;;;;;2.00;2.00;;;;;20.67;35.81;99421.69;4992738;28;8811;-50
2021/05/27 01:03:04;;;;;;;;;2.00;2.00;;;;;20.61;36.04;99423.84;4993895;28;8823;-51
2021/05/27 01:05:33;;;;;;;;;2.00;2.00;;;;;20.57;36.07;99433.84;4981885;28;8774;-50
2021/05/27 01:07:58;;;;;;;;;2.00;2.00;;;;;20.56;36.20;99434.19;4979655;28;8759;-51
2021/05/27 01:10:24;;;;;;;;;3.00;3.00;;;;;20.53;36.24;99437.63;4999599;28;8792;-50
2021/05/27 01:12:49;;;;;;;;;2.00;2.00;;;;;20.51;36.29;99439.88;5006378;28;8873;-50
2021/05/27 01:15:30;;;;;;;;;2.00;2.00;;;;;20.50;36.35;99433.59;5000299;28;8799;-50
2021/05/27 01:17:57;;;;;;;;;1.00;1.00;;;;;20.49;36.26;99431.19;4994406;28;8807;-50
2021/05/27 01:20:22;;;;;;;;;2.00;2.00;;;;;20.34;36.45;99408.81;4991814;28;8886;-50
2021/05/27 01:22:49;;;;;;;;;2.00;2.00;;;;;20.45;36.34;99433.81;4991012;28;9087;-50
2021/05/27 01:25:15;;;;;;;;;2.00;2.00;;;;;20.42;36.51;99427.09;4980864;28;8794;-49
2021/05/27 01:27:40;;;;;;;;;2.00;2.00;;;;;20.68;36.28;99431.50;4994124;28;8909;-50
2021/05/27 01:30:08;;;;;;;;;2.00;2.00;;;;;20.64;36.16;99436.06;5000118;28;8800;-50
2021/05/27 01:32:35;;;;;;;;;2.80;2.20;;;;;20.52;36.39;99436.00;5001811;28;8812;-50
2021/05/27 01:35:01;;;;;;;;;2.00;2.00;;;;;20.46;36.53;99434.66;5001367;28;8775;-50
2021/05/27 01:37:26;;;;;;;;;2.00;2.00;;;;;20.44;36.40;99434.97;4996576;28;8801;-50
2021/05/27 01:39:52;;;;;;;;;2.00;2.00;;;;;20.42;36.56;99415.31;5009252;28;8882;-50
2021/05/27 01:42:17;;;;;;;;;1.25;1.25;;;;;20.40;36.52;99428.56;4996092;28;9503;-50
2021/05/27 01:44:43;;;;;;;;;1.00;1.00;;;;;20.40;36.46;99429.38;5000624;28;8792;-50
2021/05/27 01:47:09;;;;;;;;;3.00;3.00;;;;;20.39;36.60;99430.50;4994957;28;8803;-50
2021/05/27 01:49:38;;;;;;;;;2.00;2.00;;;;;20.37;36.65;99438.25;5001580;28;8820;-50
2021/05/27 01:52:04;;;;;;;;;2.00;2.00;;;;;20.36;36.66;99436.66;4993005;28;8812;-49
2021/05/27 01:54:29;;;;;;;;;2.25;2.25;;;;;20.36;36.74;99436.66;4993288;28;8823;-50
2021/05/27 01:56:55;;;;;;;;;2.00;2.00;;;;;20.35;36.69;99440.56;4984555;28;9555;-50
2021/05/27 01:59:20;;;;;;;;;1.00;1.00;;;;;20.39;36.87;99444.19;4993455;28;8788;-50
2021/05/27 02:01:45;;;;;;;;;2.00;2.00;;;;;20.65;36.42;99450.56;4994958;28;8751;-49
2021/05/27 02:04:10;;;;;;;;;2.00;2.00;;;;;20.48;36.44;99446.06;4995052;28;8835;-50
2021/05/27 02:06:36;;;;;;;;;2.00;2.00;;;;;20.38;36.59;99452.75;5003501;28;8804;-50
2021/05/27 02:09:11;;;;;;;;;2.25;2.25;;;;;20.34;36.71;99451.84;4998184;28;8811;-50
2021/05/27 02:11:38;;;;;;;;;3.00;3.00;;;;;20.33;36.67;99456.50;5001068;28;8776;-50
2021/05/27 02:14:06;;;;;;;;;2.00;2.00;;;;;20.33;36.76;99461.97;4990243;28;8959;-50
2021/05/27 02:16:31;;;;;;;;;2.20;2.00;;;;;20.31;36.69;99458.00;4980233;28;8806;-51
2021/05/27 02:18:57;;;;;;;;;2.00;2.00;;;;;20.30;36.82;99459.94;4971180;28;8824;-51
2021/05/27 02:21:22;;;;;;;;;2.00;2.00;;;;;20.29;36.74;99450.09;4993958;28;11700;-50
2021/05/27 02:23:53;;;;;;;;;2.00;2.00;;;;;20.27;36.92;99455.13;4999956;28;8913;-50
2021/05/27 02:26:18;;;;;;;;;1.00;1.00;;;;;20.17;36.92;99436.38;4993643;28;8793;-50
2021/05/27 02:28:43;;;;;;;;;3.00;2.50;;;;;20.26;36.88;99456.25;4985159;28;8755;-47
2021/05/27 02:31:09;;;;;;;;;3.50;3.00;;;;;20.26;36.86;99458.19;5006475;28;8804;-48
2021/05/27 02:33:34;;;;;;;;;2.00;2.00;;;;;20.38;36.59;99452.75;4990960;28;8823;-48
2021/05/27 02:35:59;;;;;;;;;2.00;2.00;;;;;20.45;36.63;99463.16;4993193;28;8847;-48
2021/05/27 02:38:25;;;;;;;;;1.75;1.75;;;;;20.32;36.85;99473.28;5009212;28;8773;-48
2021/05/27 02:40:50;;;;;;;;;2.25;2.25;;;;;20.26;36.93;99466.41;5001760;28;8769;-48
2021/05/27 02:43:15;;;;;;;;;2.00;2.00;;;;;20.25;36.89;99465.63;5001386;28;8817;-46
2021/05/27 02:45:41;;;;;;;;;2.00;2.00;;;;;20.24;36.94;99466.75;4979964;28;8797;-48
2021/05/27 02:48:06;;;;;;;;;1.50;1.50;;;;;20.27;36.79;99473.50;4989691;28;8795;-48
2021/05/27 02:50:31;;;;;;;;;2.00;2.00;;;;;20.27;36.94;99474.28;5000163;28;9529;-47
2021/05/27 02:52:57;;;;;;;;;2.00;2.00;;;;;20.24;36.95;99475.78;4989457;28;8791;-48
2021/05/27 02:55:22;;;;;;;;;2.50;2.50;;;;;20.23;37.03;99474.16;4993411;28;8911;-47
2021/05/27 02:57:47;;;;;;;;;1.00;1.00;;;;;20.26;36.94;99471.88;5005430;28;8787;-48
2021/05/27 03:00:14;;;;;;;;;2.00;2.00;;;;;20.27;36.79;99474.28;4997117;28;8823;-48
2021/05/27 03:02:39;;;;;;;;;2.00;2.00;;;;;20.26;36.95;99477.38;4998816;28;8794;-48
2021/05/27 03:05:05;;;;;;;;;2.00;2.00;;;;;20.20;37.13;99476.78;4990404;28;8798;-48
2021/05/27 03:07:30;;;;;;;;;2.80;2.80;;;;;20.44;36.80;99470.59;4998801;28;8796;-48
2021/05/27 03:09:55;;;;;;;;;3.00;2.00;;;;;20.32;36.75;99476.81;5006675;28;8804;-48
2021/05/27 03:12:21;;;;;;;;;2.75;2.00;;;;;20.21;36.95;99481.09;4990145;28;8811;-48
2021/05/27 03:14:46;;;;;;;;;2.75;2.00;;;;;20.18;36.99;99487.28;4992957;28;8802;-48
2021/05/27 03:17:11;;;;;;;;;2.00;2.00;;;;;20.17;37.09;99488.41;5006396;28;8788;-49
2021/05/27 03:19:36;;;;;;;;;2.50;2.50;;;;;20.17;36.94;99491.13;4993911;28;8748;-48
2021/05/27 03:22:02;;;;;;;;;2.00;2.00;;;;;20.17;36.97;99485.66;4997822;28;8792;-48
2021/05/27 03:24:27;;;;;;;;;2.00;2.00;;;;;20.12;37.02;99486.69;4984193;28;8991;-48
2021/05/27 03:26:53;;;;;;;;;2.00;2.00;;;;;20.13;37.15;99485.53;4990390;28;8850;-50
2021/05/27 03:29:19;;;;;;;;;2.00;2.00;;;;;20.13;36.97;99490.22;4999688;28;8817;-48
2021/05/27 03:31:45;;;;;;;;;2.00;2.00;;;;;20.10;37.00;99486.19;4999484;28;8752;-48
2021/05/27 03:34:10;;;;;;;;;2.00;2.00;;;;;20.08;37.25;99495.91;5000977;28;8853;-48
2021/05/27 03:36:36;;;;;;;;;2.00;2.00;;;;;20.05;37.26;99492.69;4996140;28;8824;-48
2021/05/27 03:39:03;;;;;;;;;2.00;2.00;;;;;20.22;37.21;99496.41;4993545;28;9663;-48
2021/05/27 03:41:28;;;;;;;;;2.00;2.00;;;;;20.32;37.00;99498.75;4999648;28;8804;-48
2021/05/27 03:43:54;;;;;;;;;1.00;1.00;;;;;20.19;36.94;99494.34;4990790;28;9573;-48
2021/05/27 03:46:19;;;;;;;;;2.00;2.00;;;;;20.13;37.07;99496.50;4989529;28;8796;-48
2021/05/27 03:48:44;;;;;;;;;2.00;2.00;;;;;20.09;36.90;99497.47;4980332;28;8837;-48
2021/05/27 03:51:10;;;;;;;;;1.00;1.00;;;;;20.05;37.28;99500.91;4972797;28;9630;-48
2021/05/27 03:53:35;;;;;;;;;1.25;1.25;;;;;20.03;37.19;99497.72;4971934;28;8802;-49
2021/05/27 03:56:00;;;;;;;;;2.00;2.00;;;;;20.01;37.19;99499.16;4978567;28;8788;-48
2021/05/27 04:01:09;;;;;;;;;2.00;2.00;;;;;19.95;37.47;99501.31;4993436;28;8824;-48
2021/05/27 04:09:03;;;;;;;;;1.20;1.20;;;;;19.97;37.33;99512.72;4991539;28;8761;-48
2021/05/27 04:11:29;;;;;;;;;2.60;2.60;;;;;20.02;37.59;99507.06;4997741;28;8893;-48
2021/05/27 04:13:54;;;;;;;;;3.00;3.00;;;;;20.20;37.12;99509.66;4994650;28;8771;-48
2021/05/27 04:16:20;;;;;;;;;2.00;2.00;;;;;20.07;37.04;99499.75;5003981;28;8803;-50
2021/05/27 04:18:45;;;;;;;;;2.00;2.00;;;;;20.01;37.23;99504.63;4995381;28;9547;-49
2021/05/27 04:21:10;;;;;;;;;2.00;2.00;;;;;19.98;37.42;99505.31;4994284;28;8943;-50
2021/05/27 04:23:36;;;;;;;;;2.00;2.00;;;;;19.99;37.35;99501.44;4995767;28;8831;-49
2021/05/27 04:26:06;;;;;;;;;2.40;2.40;;;;;19.97;37.34;99506.47;4992780;28;8807;-49
2021/05/27 04:28:32;;;;;;;;;2.00;2.00;;;;;19.92;37.49;99501.19;4998582;28;8829;-50
2021/05/27 04:31:18;;;;;;;;;2.00;2.00;;;;;19.94;37.39;99513.38;5003979;28;9628;-50
2021/05/27 04:33:43;;;;;;;;;2.00;2.00;;;;;19.93;37.27;99514.53;4989074;28;11536;-49
2021/05/27 04:36:10;;;;;;;;;1.00;1.00;;;;;19.92;37.49;99512.91;4987738;28;9631;-50
2021/05/27 04:38:35;;;;;;;;;2.00;2.00;;;;;19.93;37.44;99516.44;4988814;28;8797;-50
2021/05/27 04:41:01;;;;;;;;;2.25;2.25;;;;;19.82;37.39;99491.41;4993170;28;8796;-50
2021/05/27 04:43:27;;;;;;;;;2.00;2.00;;;;;19.87;37.44;99504.91;4989357;28;8800;-50
2021/05/27 04:45:52;;;;;;;;;1.80;1.80;;;;;20.09;37.26;99505.69;4991262;28;8850;-50
2021/05/27 04:48:18;;;;;;;;;2.00;2.00;;;;;20.02;37.00;99501.56;4990484;28;8777;-49
2021/05/27 04:50:46;;;;;;;;;2.80;2.00;;;;;19.95;37.21;99506.00;4990196;28;8810;-50
2021/05/27 04:53:12;;;;;;;;;2.00;2.00;;;;;19.90;37.46;99506.97;4986871;28;8839;-50
2021/05/27 04:55:38;;;;;;;;;2.00;2.00;;;;;19.82;37.48;99499.63;4995196;28;8780;-50
2021/05/27 04:58:04;;;;;;;;;2.00;2.00;;;;;19.89;37.33;99513.59;4990483;28;10019;-50
2021/05/27 05:00:29;;;;;;;;;2.00;2.00;;;;;19.86;37.30;99509.59;4991313;28;8804;-50
2021/05/27 05:02:56;;;;;;;;;2.00;2.00;;;;;19.87;37.32;99521.31;4992053;28;8799;-49
2021/05/27 05:05:23;;;;;;;;;2.40;2.40;;;;;19.85;37.55;99512.66;4988844;28;8915;-50
2021/05/27 05:07:49;;;;;;;;;2.00;2.00;;;;;19.82;37.58;99507.84;4987707;28;8813;-50
2021/05/27 05:10:16;;;;;;;;;2.40;2.40;;;;;19.83;37.47;99515.72;4997577;28;9544;-50
2021/05/27 05:12:49;;;;;;;;;2.00;2.00;;;;;19.81;37.44;99519.94;4987998;28;8787;-50
2021/05/27 05:15:20;;;;;;;;;2.00;2.00;;;;;19.80;37.51;99516.38;4991352;28;8820;-50
2021/05/27 05:17:51;;;;;;;;;1.80;1.80;;;;;19.91;37.56;99522.28;4990792;28;8866;-51
2021/05/27 05:20:19;;;;;;;;;2.00;2.00;;;;;20.02;37.09;99522.69;4993714;28;8784;-49
2021/05/27 05:22:44;;;;;;;;;2.00;2.00;;;;;19.90;37.31;99522.63;4993932;28;8767;-50
2021/05/27 05:25:10;;;;;;;;;1.50;1.50;;;;;19.81;37.32;99520.72;4995294;28;8810;-50
2021/05/27 05:27:35;;;;;;;;;2.00;2.00;;;;;19.82;37.45;99536.03;4978794;28;8838;-50
2021/05/27 05:30:02;;;;;;;;;2.00;2.00;;;;;19.81;37.47;99536.38;4988391;28;8780;-50
2021/05/27 05:32:27;;;;;;;;;2.00;2.00;;;;;19.79;37.48;99531.22;4994426;28;8815;-50
2021/05/27 05:34:54;;;;;;;;;1.25;1.25;;;;;19.80;37.54;99538.28;4993762;28;9529;-50
2021/05/27 05:37:19;;;;;;;;;1.40;1.40;;;;;19.78;37.53;99534.28;4992050;28;8874;-50
2021/05/27 05:39:45;;;;;;;;;2.00;2.00;;;;;19.76;37.51;99534.59;4994070;28;8807;-50
2021/05/27 05:42:10;;;;;;;;;3.00;3.00;;;;;19.74;37.56;99533.34;4994083;28;8827;-50
2021/05/27 05:44:35;;;;;;;;;2.00;2.00;;;;;19.76;37.58;99533.81;4990839;28;8817;-50
2021/05/27 05:47:01;;;;;;;;;2.00;2.00;;;;;19.73;37.46;99523.50;4994262;28;8795;-50
2021/05/27 05:49:26;;;;;;;;;2.00;2.00;;;;;19.67;37.66;99520.16;4993365;28;8815;-50
2021/05/27 05:51:51;;;;;;;;;2.00;2.00;;;;;19.95;37.32;99525.94;4975824;28;8973;-50
2021/05/27 05:54:17;;;;;;;;;2.00;2.00;;;;;19.91;37.12;99527.75;4988096;28;8937;-50
2021/05/27 05:56:42;;;;;;;;;3.00;2.75;;;;;19.82;37.24;99527.81;4979015;28;9567;-50
2021/05/27 05:59:07;;;;;;;;;1.75;1.75;;;;;19.78;37.44;99534.28;4976453;28;8773;-50
2021/05/27 06:01:33;;;;;;;;;2.00;2.00;;;;;19.75;37.43;99535.75;4989368;28;8884;-50
2021/05/27 06:03:58;;;;;;;;;1.25;1.25;;;;;19.74;37.56;99533.34;4991071;28;8811;-50
2021/05/27 06:06:23;;;;;;;;;2.00;2.00;;;;;19.72;37.62;99532.81;4988013;28;8824;-49
2021/05/27 06:08:49;;;;;;;;;2.00;2.00;;;;;19.71;37.53;99533.97;4977141;28;8938;-50
2021/05/27 06:11:14;;;;;;;;;2.00;2.00;;;;;19.71;37.42;99537.50;4977087;28;8808;-50
2021/05/27 06:13:39;;;;;;;;;2.25;2.25;;;;;19.70;37.49;99541.41;4986233;28;8927;-49
2021/05/27 06:16:05;;;;;;;;;2.00;2.00;;;;;19.68;37.70;99539.00;4991210;28;8812;-50
2021/05/27 06:18:30;;;;;;;;;2.40;2.40;;;;;19.69;37.64;99548.00;4988088;28;8803;-50
2021/05/27 06:20:56;;;;;;;;;1.75;1.75;;;;;19.66;37.56;99544.00;4989147;28;8932;-49
2021/05/27 06:23:21;;;;;;;;;1.75;1.75;;;;;19.70;37.78;99537.84;4988288;28;8824;-50
2021/05/27 06:25:47;;;;;;;;;1.50;1.50;;;;;19.92;37.27;99545.78;4983334;28;8799;-50
2021/05/27 06:28:12;;;;;;;;;2.00;2.00;;;;;19.77;37.16;99543.59;4972553;28;9605;-50
2021/05/27 06:30:37;;;;;;;;;2.00;2.00;;;;;19.69;37.53;99548.00;4984770;28;11640;-50
2021/05/27 06:33:03;;;;;;;;;2.00;2.00;;;;;19.68;37.65;99547.19;4989088;28;8871;-52
2021/05/27 06:35:30;;;;;;;;;2.00;2.00;;;;;19.69;37.47;99545.25;4978605;28;8850;-50
2021/05/27 06:37:55;;;;;;;;;2.00;2.00;;;;;19.70;37.53;99549.59;4974057;28;8800;-50
2021/05/27 06:40:25;;;;;;;;;2.00;2.00;;;;;19.70;37.67;99557.00;4987976;28;8812;-50
2021/05/27 06:42:51;;;;;;;;;2.00;2.00;;;;;19.59;37.46;99542.91;4990088;28;8804;-50
2021/05/27 06:45:18;;;;;;;;;2.60;2.60;;;;;19.66;37.58;99560.41;4989555;28;9927;-49
2021/05/27 06:47:44;;;;;;;;;2.00;2.00;;;;;19.66;37.64;99560.41;4986610;28;8904;-50
2021/05/27 06:50:09;;;;;;;;;2.00;2.00;;;;;19.66;37.58;99559.59;4985693;28;8785;-50
2021/05/27 06:52:36;;;;;;;;;2.00;2.00;;;;;19.63;37.58;99561.06;4986839;28;9588;-50
2021/05/27 06:55:03;;;;;;;;;2.00;2.00;;;;;19.63;37.36;99561.06;4989874;28;8835;-50
2021/05/27 06:57:29;;;;;;;;;2.00;2.00;;;;;19.81;37.60;99566.47;4988205;28;8800;-49
2021/05/27 06:59:54;;;;;;;;;2.75;2.75;;;;;19.81;37.03;99567.25;4987535;28;8812;-50
2021/05/27 07:02:19;;;;;;;;;2.00;2.00;;;;;19.71;37.49;99561.34;4987102;28;8847;-50
2021/05/27 07:04:46;;;;;;;;;3.00;3.00;;;;;19.50;37.39;99537.47;4987405;28;8988;-50
2021/05/27 07:07:12;;;;;;;;;2.00;2.00;;;;;19.63;37.52;99560.25;4987623;28;8902;-49
2021/05/27 07:09:39;;;;;;;;;2.40;2.40;;;;;19.60;37.66;99567.19;4985410;28;8816;-52
2021/05/27 07:12:06;;;;;;;;;2.20;2.20;;;;;19.74;37.47;99574.41;4987584;28;8804;-48
2021/05/27 07:14:32;;;;;;;;;2.00;2.00;;;;;19.70;37.71;99570.66;4992100;28;9871;-48
2021/05/27 07:16:57;;;;;;;;;2.50;2.50;;;;;19.66;37.71;99568.63;4987014;28;8808;-48
2021/05/27 07:19:22;;;;;;;;;2.75;2.75;;;;;19.65;37.90;99577.16;4989962;28;8990;-47
2021/05/27 07:21:47;;;;;;;;;2.50;2.00;;;;;19.63;37.91;99572.00;4990335;28;8804;-48
2021/05/27 07:24:13;;;;;;;;;2.00;2.00;;;;;19.62;37.81;99577.81;4987446;28;8814;-48
2021/05/27 07:26:38;;;;;;;;;2.00;2.00;;;;;19.62;37.96;99581.34;4986947;28;8823;-50
2021/05/27 07:29:04;;;;;;;;;2.75;2.75;;;;;19.67;37.88;99567.47;4984832;28;8792;-50
2021/05/27 07:31:30;;;;;;;;;2.00;2.00;;;;;19.93;37.51;99569.28;4988148;28;8820;-49
2021/05/27 07:33:56;;;;;;;;;2.00;2.00;;;;;19.81;37.27;99571.94;4969241;28;8933;-50
2021/05/27 07:36:21;;;;;;;;;2.25;2.00;;;;;19.73;37.64;99575.50;4985717;28;8947;-51
2021/05/27 07:38:46;;;;;;;;;2.50;2.00;;;;;19.69;37.71;99569.88;4986907;28;9639;-49
2021/05/27 07:41:12;;;;;;;;;2.00;2.00;;;;;19.67;37.69;99570.22;4985926;28;8838;-50
2021/05/27 07:43:37;;;;;;;;;2.00;2.00;;;;;19.65;37.80;99577.94;4988335;28;8800;-50
2021/05/27 07:46:02;;;;;;;;;2.00;2.00;;;;;19.63;37.84;99582.94;4989663;28;8938;-50
2021/05/27 07:48:28;;;;;;;;;2.25;2.25;;;;;19.60;37.90;99578.13;4986419;28;8820;-50
2021/05/27 07:50:53;;;;;;;;;2.00;2.00;;;;;19.63;37.73;99582.94;4987143;28;8804;-50
2021/05/27 07:53:20;;;;;;;;;2.00;2.00;;;;;19.19;37.79;99524.94;4987513;28;8917;-50
2021/05/27 07:55:45;;;;;;;;;2.00;2.00;;;;;19.59;37.86;99582.00;4986748;28;8901;-50
2021/05/27 07:58:11;;;;;;;;;2.50;2.50;;;;;19.59;37.83;99590.19;4988720;28;8884;-50
2021/05/27 08:00:37;;;;;;;;;2.00;2.00;;;;;19.59;37.68;99584.72;4986517;28;8839;-49
2021/05/27 08:03:03;;;;;;;;;3.20;3.00;;;;;19.76;37.43;99574.88;4986939;28;8832;-50
2021/05/27 08:05:28;;;;;;;;;2.00;2.00;;;;;19.74;37.17;99560.72;4988669;28;8815;-51
2021/05/27 08:07:53;;;;;;;;;2.75;2.75;;;;;19.68;37.39;99573.72;4985704;28;8857;-50
2021/05/27 08:10:19;;;;;;;;;2.75;2.00;;;;;19.62;37.58;99586.81;4989146;28;8838;-49
2021/05/27 08:12:45;;;;;;;;;3.00;3.00;;;;;19.59;37.67;99584.72;4988376;28;8792;-51
2021/05/27 08:15:10;;;;;;;;;2.25;2.25;;;;;19.59;37.63;99586.66;4988643;28;8788;-50
2021/05/27 08:17:36;;;;;;;;;2.75;2.00;;;;;19.55;37.72;99586.53;4988877;28;8829;-50
2021/05/27 08:20:03;;;;;;;;;2.75;2.75;;;;;19.54;37.86;99593.16;4985878;28;8757;-50
2021/05/27 08:22:29;;;;;;;;;2.40;2.40;;;;;19.53;37.78;99586.06;4987884;28;9882;-49
2021/05/27 08:24:55;;;;;;;;;3.00;3.00;;;;;19.52;37.64;99580.91;4989470;28;8827;-50
2021/05/27 08:27:21;;;;;;;;;2.00;2.00;;;;;19.54;37.74;99590.41;4986236;28;8812;-50
2021/05/27 08:29:46;;;;;;;;;2.20;2.20;;;;;19.54;37.65;99595.06;4987509;28;8870;-50
2021/05/27 08:32:12;;;;;;;;;2.75;2.75;;;;;19.52;37.67;99595.38;4979401;28;8795;-50
2021/05/27 08:34:37;;;;;;;;;2.00;2.00;;;;;19.52;37.64;99598.13;4969346;28;8807;-50
2021/05/27 08:37:02;;;;;;;;;3.00;2.00;;;;;19.78;37.36;99595.28;4989452;28;8800;-50
2021/05/27 08:39:28;;;;;;;;;2.00;2.00;;;;;19.70;37.07;99598.03;4985000;28;8921;-49
2021/05/27 08:41:54;;;;;;;;;2.00;2.00;;;;;19.61;37.37;99593.44;4973711;28;8819;-50
2021/05/27 08:44:19;;;;;;;;;2.20;2.20;;;;;19.55;37.53;99592.00;4967854;28;8799;-50
2021/05/27 08:46:47;;;;;;;;;2.00;2.00;;;;;19.55;37.63;99593.94;4972209;28;9544;-50
2021/05/27 08:49:13;;;;;;;;;2.00;2.00;;;;;19.53;37.67;99599.72;4989695;28;8857;-51
2021/05/27 08:51:38;;;;;;;;;2.00;2.00;;;;;19.53;37.70;99599.72;4986442;28;8808;-50
2021/05/27 08:54:05;;;;;;;;;2.00;2.00;;;;;19.53;37.67;99588.78;4991122;28;11556;-50
2021/05/27 08:56:31;;;;;;;;;2.60;2.60;;;;;19.54;37.63;99595.06;4990481;28;10386;-50
2021/05/27 08:58:57;;;;;;;;;2.80;2.80;;;;;19.53;37.74;99588.78;4987505;28;8805;-50
2021/05/27 09:01:23;;;;;;;;;2.25;2.00;;;;;19.72;36.79;99595.75;4991671;28;8896;-50
2021/05/27 09:03:50;;;;;;;;;2.80;2.80;;;;;19.98;37.99;99582.78;4991336;28;8812;-50
2021/05/27 09:06:16;;;;;;;;;3.00;3.00;;;;;20.12;37.45;99587.19;4991237;28;8773;-48
2021/05/27 09:08:42;;;;;;;;;446.80;370.40;;;;;20.16;38.07;99577.97;4989507;28;8851;-48
2021/05/27 09:11:16;;;;;;;;;61.75;50.50;;;;;20.39;38.28;99580.38;4989093;28;9532;-49
2021/05/27 09:13:58;;;;;;;;;112.75;106.00;;;;;20.59;38.00;99595.19;4988881;28;9013;-49
2021/05/27 09:16:25;;;;;;;;;175.20;158.00;;;;;20.70;37.19;99590.13;4989730;28;9543;-47
2021/05/27 09:18:51;;;;;;;;;59.80;48.40;;;;;20.82;37.21;99592.91;4972752;28;8842;-48
2021/05/27 09:21:33;;;;;;;;;44.40;39.00;;;;;20.74;35.73;99602.03;4970348;28;8853;-48
2021/05/27 09:23:58;;;;;;;;;49.00;40.20;;;;;20.72;36.71;99602.34;4970141;28;8822;-47
2021/05/27 09:26:24;;;;;;;;;48.20;40.60;;;;;20.65;36.98;99604.84;4976599;28;8870;-46
2021/05/27 09:28:49;;;;;;;;;38.25;35.50;;;;;20.51;37.26;99607.00;4985835;28;8945;-47
2021/05/27 09:31:22;;;;;;;;;42.00;35.50;;;;;20.50;36.31;99602.69;4975913;28;8814;-50
2021/05/27 09:34:00;;;;;;;;;38.20;34.00;;;;;20.51;35.76;99601.53;4974436;28;8900;-48
2021/05/27 09:36:25;;;;;;;;;32.40;30.60;;;;;20.52;35.08;99603.16;4994062;28;8804;-49
2021/05/27 09:38:55;;;;;;;;;39.25;33.75;;;;;20.68;35.26;99606.88;4982862;28;8803;-48
2021/05/27 09:41:24;;;;;;;;;26.40;25.40;;;;;20.69;35.53;99611.25;4985073;28;8804;-48
2021/05/27 09:44:15;;;;;;;;;34.20;31.60;;;;;20.60;36.12;99608.56;4996574;28;8814;-48
2021/05/27 09:46:51;;;;;;;;;31.00;27.40;;;;;20.27;36.00;99605.75;4995997;28;8800;-48
2021/05/27 09:49:16;;;;;;;;;33.20;30.80;;;;;20.34;36.02;99611.50;4995528;28;8796;-47
2021/05/27 09:51:42;;;;;;;;;23.25;23.25;;;;;20.47;35.43;99615.09;4998211;28;8812;-49
2021/05/27 09:54:07;;;;;;;;;24.25;23.00;;;;;20.49;35.06;99612.03;4995214;28;8832;-48
2021/05/27 09:56:40;;;;;;;;;31.40;29.60;;;;;20.66;34.67;99605.63;4996165;28;8801;-49
2021/05/27 09:59:10;;;;;;;;;23.20;21.80;;;;;20.67;35.17;99602.56;4995384;28;8804;-50
2021/05/27 10:01:36;;;;;;;;;20.00;19.00;;;;;20.64;35.67;99607.91;4993913;28;8780;-49
2021/05/27 10:04:12;;;;;;;;;20.00;19.60;;;;;20.37;35.68;99605.38;4994116;28;8839;-49
2021/05/27 10:06:38;;;;;;;;;22.20;19.40;;;;;20.18;36.11;99605.81;4992126;28;8801;-49
2021/05/27 10:09:05;;;;;;;;;20.50;19.50;;;;;20.10;36.36;99603.16;4992801;28;8818;-49
2021/05/27 10:11:32;;;;;;;;;22.20;20.40;;;;;20.14;36.49;99606.81;4993763;28;8800;-49
2021/05/27 10:14:00;;;;;;;;;20.40;18.40;;;;;20.43;35.13;99604.00;4992592;28;8784;-48
2021/05/27 10:16:25;;;;;;;;;18.00;16.40;;;;;20.51;34.43;99599.63;4993367;28;8809;-48
2021/05/27 10:18:54;;;;;;;;;15.20;14.40;;;;;20.68;34.48;99604.16;4996548;28;8925;-48
2021/05/27 10:21:19;;;;;;;;;17.00;15.80;;;;;20.70;35.13;99607.38;4994732;28;9533;-50
2021/05/27 10:23:45;;;;;;;;;16.50;15.75;;;;;20.61;35.67;99601.13;4995709;28;8796;-49
2021/05/27 10:26:11;;;;;;;;;16.25;13.00;;;;;20.44;35.57;99599.34;4994817;28;11363;-50
2021/05/27 10:28:38;;;;;;;;;13.25;13.25;;;;;20.18;35.82;99603.09;4993614;28;8772;-49
2021/05/27 10:31:04;;;;;;;;;15.00;14.40;;;;;20.05;36.17;99604.94;4996228;28;9573;-50
2021/05/27 10:33:39;;;;;;;;;11.00;11.00;;;;;20.01;36.29;99606.72;4991210;28;8844;-49
2021/05/27 10:36:05;;;;;;;;;15.80;13.00;;;;;20.32;35.31;99607.50;4990539;28;8792;-50
2021/05/27 10:38:37;;;;;;;;;14.00;12.00;;;;;20.49;34.58;99601.88;4992544;28;8780;-49
2021/05/27 10:41:03;;;;;;;;;9.80;9.80;;;;;20.59;33.98;99606.94;4990136;28;8923;-50
2021/05/27 10:43:29;;;;;;;;;8.20;8.20;;;;;20.71;34.81;99608.16;4994930;28;8800;-49
2021/05/27 10:45:57;;;;;;;;;7.75;7.25;;;;;20.61;35.62;99614.81;4993912;28;8812;-50
2021/05/27 10:48:31;;;;;;;;;8.20;8.20;;;;;20.51;35.46;99607.84;4993631;28;8776;-49
2021/05/27 10:53:37;;;;;;;;;11.60;11.00;;;;;20.07;36.15;99617.50;4992498;28;8828;-48
2021/05/27 10:56:05;;;;;;;;;9.40;8.00;;;;;20.00;36.14;99618.03;4990695;28;8787;-50
2021/05/27 10:58:45;;;;;;;;;11.40;10.80;;;;;19.98;36.44;99621.09;4990827;28;8915;-49
2021/05/27 11:01:11;;;;;;;;;9.80;9.60;;;;;20.34;34.81;99613.44;4993480;28;8813;-49
2021/05/27 11:03:46;;;;;;;;;8.80;8.80;;;;;20.46;34.25;99612.72;4989883;28;8777;-49
2021/05/27 11:06:18;;;;;;;;;6.80;6.20;;;;;20.67;34.52;99624.50;4991863;28;8866;-49
2021/05/27 11:08:44;;;;;;;;;11.40;10.20;;;;;20.68;35.00;99615.09;4991337;28;8796;-50
2021/05/27 11:11:47;;;;;;;;;9.00;9.00;;;;;20.58;35.75;99619.06;4991222;28;8946;-49
2021/05/27 11:14:27;;;;;;;;;6.80;6.80;;;;;20.30;35.50;99618.78;4991299;28;8812;-48
2021/05/27 11:17:02;;;;;;;;;7.80;7.80;;;;;20.10;36.05;99617.63;4991106;28;8781;-49
2021/05/27 11:19:40;;;;;;;;;6.40;6.40;;;;;20.04;36.13;99627.19;4991319;28;8923;-49
2021/05/27 11:22:33;;;;;;;;;6.60;6.60;;;;;19.99;36.26;99617.22;4993116;28;8886;-49
2021/05/27 11:25:17;;;;;;;;;7.60;7.20;;;;;20.29;35.24;99614.44;4990543;28;8793;-49
2021/05/27 11:27:48;;;;;;;;;7.40;6.00;;;;;20.40;35.07;99610.19;4990208;28;8788;-49
2021/05/27 11:30:15;;;;;;;;;7.20;6.60;;;;;20.60;34.13;99599.53;4990784;28;8927;-50
2021/05/27 11:32:41;;;;;;;;;5.60;4.80;;;;;20.69;34.80;99603.03;4992173;28;8849;-49
2021/05/27 11:35:07;;;;;;;;;6.50;5.25;;;;;20.60;35.49;99605.03;4991349;28;8805;-49
2021/05/27 11:37:37;;;;;;;;;6.20;5.40;;;;;20.50;35.33;99613.66;4991911;28;11609;-49
2021/05/27 11:40:08;;;;;;;;;5.00;5.00;;;;;20.20;35.70;99613.72;4990975;28;8796;-49
2021/05/27 11:42:34;;;;;;;;;5.00;5.00;;;;;20.00;36.08;99602.41;4973751;28;8839;-48
2021/05/27 11:45:05;;;;;;;;;6.60;5.00;;;;;20.03;36.22;99617.34;4972542;28;8840;-50
2021/05/27 11:47:31;;;;;;;;;4.40;4.40;;;;;19.99;36.21;99617.22;4971274;28;8787;-49
2021/05/27 11:50:08;;;;;;;;;5.50;4.50;;;;;20.21;35.61;99615.28;4977065;28;8795;-49